sensor_id;sensor_type;location;lat;lon;timestamp;P1;durP1;ratioP1;P2;durP2;ratioP2
73107;SDS011;61559;50.476;15.588;2023-02-28T00:00:37;6.10;;;3.30;;
73107;SDS011;61559;50.476;15.588;2023-02-28T00:03:18;7.80;;;3.90;;
73107;SDS011;61559;50.476;15.588;2023-02-28T00:05:49;10.60;;;3.80;;
73107;SDS011;61559;50.476;15.588;2023-02-28T00:08:20;9.70;;;4.80;;
73107;SDS011;61559;50.476;15.588;2023-02-28T00:10:51;11.50;;;5.20;;
73107;SDS011;61559;50.476;15.588;2023-02-28T00:13:22;8.40;;;5.00;;
73107;SDS011;61559;50.476;15.588;2023-02-28T00:15:59;15.20;;;7.20;;
73107;SDS011;61559;50.476;15.588;2023-02-28T00:18:31;21.30;;;12.00;;
73107;SDS011;61559;50.476;15.588;2023-02-28T00:21:04;18.90;;;7.70;;
73107;SDS011;61559;50.476;15.588;2023-02-28T00:23:36;9.20;;;6.40;;
73107;SDS011;61559;50.476;15.588;2023-02-28T00:26:07;10.70;;;5.10;;
73107;SDS011;61559;50.476;15.588;2023-02-28T00:28:38;8.20;;;4.00;;
73107;SDS011;61559;50.476;15.588;2023-02-28T00:31:09;4.90;;;2.90;;
73107;SDS011;61559;50.476;15.588;2023-02-28T00:33:40;7.70;;;3.90;;
73107;SDS011;61559;50.476;15.588;2023-02-28T00:36:11;8.10;;;4.00;;
73107;SDS011;61559;50.476;15.588;2023-02-28T00:38:42;7.60;;;3.70;;
73107;SDS011;61559;50.476;15.588;2023-02-28T00:41:13;10.50;;;4.70;;
73107;SDS011;61559;50.476;15.588;2023-02-28T00:43:43;10.40;;;4.70;;
73107;SDS011;61559;50.476;15.588;2023-02-28T00:46:14;8.40;;;4.50;;
73107;SDS011;61559;50.476;15.588;2023-02-28T00:48:46;9.90;;;5.10;;
73107;SDS011;61559;50.476;15.588;2023-02-28T00:51:17;8.50;;;3.60;;
73107;SDS011;61559;50.476;15.588;2023-02-28T00:53:48;7.80;;;4.10;;
73107;SDS011;61559;50.476;15.588;2023-02-28T00:56:19;8.10;;;3.70;;
73107;SDS011;61559;50.476;15.588;2023-02-28T00:58:50;6.90;;;3.30;;
73107;SDS011;61559;50.476;15.588;2023-02-28T01:01:21;9.80;;;4.10;;
73107;SDS011;61559;50.476;15.588;2023-02-28T01:03:52;9.80;;;3.60;;
73107;SDS011;61559;50.476;15.588;2023-02-28T01:06:23;8.90;;;4.10;;
73107;SDS011;61559;50.476;15.588;2023-02-28T01:08:54;8.20;;;4.00;;
73107;SDS011;61559;50.476;15.588;2023-02-28T01:11:25;7.70;;;3.40;;
73107;SDS011;61559;50.476;15.588;2023-02-28T01:13:57;6.70;;;3.00;;
73107;SDS011;61559;50.476;15.588;2023-02-28T01:16:28;5.60;;;3.30;;
73107;SDS011;61559;50.476;15.588;2023-02-28T01:18:59;6.10;;;3.10;;
73107;SDS011;61559;50.476;15.588;2023-02-28T01:21:30;8.00;;;3.50;;
73107;SDS011;61559;50.476;15.588;2023-02-28T01:24:03;6.70;;;3.20;;
73107;SDS011;61559;50.476;15.588;2023-02-28T01:26:35;7.20;;;3.20;;
73107;SDS011;61559;50.476;15.588;2023-02-28T01:29:06;6.30;;;3.00;;
73107;SDS011;61559;50.476;15.588;2023-02-28T01:31:37;9.20;;;3.80;;
73107;SDS011;61559;50.476;15.588;2023-02-28T01:34:09;7.60;;;4.30;;
73107;SDS011;61559;50.476;15.588;2023-02-28T01:36:40;8.00;;;3.20;;
73107;SDS011;61559;50.476;15.588;2023-02-28T01:39:11;5.50;;;3.20;;
73107;SDS011;61559;50.476;15.588;2023-02-28T01:41:42;6.40;;;3.10;;
73107;SDS011;61559;50.476;15.588;2023-02-28T01:47:15;6.40;;;3.50;;
73107;SDS011;61559;50.476;15.588;2023-02-28T01:49:46;5.90;;;3.20;;
73107;SDS011;61559;50.476;15.588;2023-02-28T01:52:19;9.00;;;3.80;;
73107;SDS011;61559;50.476;15.588;2023-02-28T01:54:54;4.90;;;3.60;;
73107;SDS011;61559;50.476;15.588;2023-02-28T01:57:29;7.70;;;3.40;;
73107;SDS011;61559;50.476;15.588;2023-02-28T02:00:07;8.60;;;3.80;;
73107;SDS011;61559;50.476;15.588;2023-02-28T02:02:43;8.00;;;4.30;;
73107;SDS011;61559;50.476;15.588;2023-02-28T02:05:19;8.30;;;3.70;;
73107;SDS011;61559;50.476;15.588;2023-02-28T02:07:54;7.20;;;3.30;;
73107;SDS011;61559;50.476;15.588;2023-02-28T02:10:27;6.40;;;3.60;;
73107;SDS011;61559;50.476;15.588;2023-02-28T02:13:17;9.10;;;4.10;;
73107;SDS011;61559;50.476;15.588;2023-02-28T02:16:00;7.30;;;3.50;;
73107;SDS011;61559;50.476;15.588;2023-02-28T02:18:40;7.30;;;3.10;;
73107;SDS011;61559;50.476;15.588;2023-02-28T02:21:42;12.20;;;5.70;;
73107;SDS011;61559;50.476;15.588;2023-02-28T02:27:26;6.60;;;2.80;;
73107;SDS011;61559;50.476;15.588;2023-02-28T02:36:15;5.90;;;2.90;;
73107;SDS011;61559;50.476;15.588;2023-02-28T02:38:52;7.20;;;3.00;;
73107;SDS011;61559;50.476;15.588;2023-02-28T02:41:31;10.70;;;5.50;;
73107;SDS011;61559;50.476;15.588;2023-02-28T02:44:10;9.10;;;4.20;;
73107;SDS011;61559;50.476;15.588;2023-02-28T02:46:44;3.60;;;2.40;;
73107;SDS011;61559;50.476;15.588;2023-02-28T02:49:21;6.10;;;3.00;;
73107;SDS011;61559;50.476;15.588;2023-02-28T02:51:57;7.60;;;3.60;;
73107;SDS011;61559;50.476;15.588;2023-02-28T02:54:34;6.70;;;3.40;;
73107;SDS011;61559;50.476;15.588;2023-02-28T02:57:09;6.90;;;3.70;;
73107;SDS011;61559;50.476;15.588;2023-02-28T02:59:45;6.80;;;2.90;;
73107;SDS011;61559;50.476;15.588;2023-02-28T03:02:18;6.10;;;3.00;;
73107;SDS011;61559;50.476;15.588;2023-02-28T03:04:53;6.20;;;2.60;;
73107;SDS011;61559;50.476;15.588;2023-02-28T03:07:30;6.70;;;3.70;;
73107;SDS011;61559;50.476;15.588;2023-02-28T03:10:01;11.50;;;4.90;;
73107;SDS011;61559;50.476;15.588;2023-02-28T03:12:47;7.70;;;3.70;;
73107;SDS011;61559;50.476;15.588;2023-02-28T03:15:31;11.00;;;5.40;;
73107;SDS011;61559;50.476;15.588;2023-02-28T03:18:08;24.40;;;7.80;;
73107;SDS011;61559;50.476;15.588;2023-02-28T03:20:45;18.80;;;6.10;;
73107;SDS011;61559;50.476;15.588;2023-02-28T03:23:27;16.20;;;6.60;;
73107;SDS011;61559;50.476;15.588;2023-02-28T03:26:07;10.90;;;4.20;;
73107;SDS011;61559;50.476;15.588;2023-02-28T03:29:01;14.00;;;5.60;;
73107;SDS011;61559;50.476;15.588;2023-02-28T03:31:41;25.10;;;10.30;;
73107;SDS011;61559;50.476;15.588;2023-02-28T03:34:19;30.40;;;11.90;;
73107;SDS011;61559;50.476;15.588;2023-02-28T03:36:55;12.60;;;5.20;;
73107;SDS011;61559;50.476;15.588;2023-02-28T03:39:31;18.80;;;9.60;;
73107;SDS011;61559;50.476;15.588;2023-02-28T03:42:08;39.50;;;17.60;;
73107;SDS011;61559;50.476;15.588;2023-02-28T03:44:45;22.10;;;11.30;;
73107;SDS011;61559;50.476;15.588;2023-02-28T03:47:21;31.90;;;13.20;;
73107;SDS011;61559;50.476;15.588;2023-02-28T03:49:56;21.20;;;8.20;;
73107;SDS011;61559;50.476;15.588;2023-02-28T03:52:31;21.60;;;9.00;;
73107;SDS011;61559;50.476;15.588;2023-02-28T03:55:06;6.60;;;2.90;;
73107;SDS011;61559;50.476;15.588;2023-02-28T03:57:43;21.00;;;9.10;;
73107;SDS011;61559;50.476;15.588;2023-02-28T04:00:24;14.40;;;5.90;;
73107;SDS011;61559;50.476;15.588;2023-02-28T04:02:58;9.80;;;4.60;;
73107;SDS011;61559;50.476;15.588;2023-02-28T04:05:31;9.50;;;4.30;;
73107;SDS011;61559;50.476;15.588;2023-02-28T04:08:14;18.70;;;8.60;;
73107;SDS011;61559;50.476;15.588;2023-02-28T04:10:45;12.70;;;7.40;;
73107;SDS011;61559;50.476;15.588;2023-02-28T04:13:20;10.40;;;5.60;;
73107;SDS011;61559;50.476;15.588;2023-02-28T04:15:52;12.00;;;6.00;;
73107;SDS011;61559;50.476;15.588;2023-02-28T04:18:23;12.30;;;5.30;;
73107;SDS011;61559;50.476;15.588;2023-02-28T04:20:59;13.00;;;5.00;;
73107;SDS011;61559;50.476;15.588;2023-02-28T04:23:31;10.00;;;4.80;;
73107;SDS011;61559;50.476;15.588;2023-02-28T04:26:02;8.90;;;4.20;;
73107;SDS011;61559;50.476;15.588;2023-02-28T04:28:34;9.60;;;3.90;;
73107;SDS011;61559;50.476;15.588;2023-02-28T04:31:08;11.40;;;4.90;;
73107;SDS011;61559;50.476;15.588;2023-02-28T04:33:39;9.40;;;4.50;;
73107;SDS011;61559;50.476;15.588;2023-02-28T04:36:11;8.20;;;3.90;;
73107;SDS011;61559;50.476;15.588;2023-02-28T04:38:42;12.20;;;4.70;;
73107;SDS011;61559;50.476;15.588;2023-02-28T04:41:15;8.00;;;3.80;;
73107;SDS011;61559;50.476;15.588;2023-02-28T04:43:47;8.40;;;3.50;;
73107;SDS011;61559;50.476;15.588;2023-02-28T04:46:19;9.80;;;4.20;;
73107;SDS011;61559;50.476;15.588;2023-02-28T04:48:50;8.80;;;4.40;;
73107;SDS011;61559;50.476;15.588;2023-02-28T04:51:22;13.50;;;4.60;;
73107;SDS011;61559;50.476;15.588;2023-02-28T04:53:53;9.30;;;4.30;;
73107;SDS011;61559;50.476;15.588;2023-02-28T04:56:24;6.70;;;3.80;;
73107;SDS011;61559;50.476;15.588;2023-02-28T04:58:56;12.80;;;4.20;;
73107;SDS011;61559;50.476;15.588;2023-02-28T05:01:28;8.30;;;4.10;;
73107;SDS011;61559;50.476;15.588;2023-02-28T05:04:01;8.90;;;4.50;;
73107;SDS011;61559;50.476;15.588;2023-02-28T05:06:34;10.60;;;3.80;;
73107;SDS011;61559;50.476;15.588;2023-02-28T05:09:05;11.30;;;4.40;;
73107;SDS011;61559;50.476;15.588;2023-02-28T05:11:36;14.00;;;6.60;;
73107;SDS011;61559;50.476;15.588;2023-02-28T05:14:09;11.70;;;5.10;;
73107;SDS011;61559;50.476;15.588;2023-02-28T05:16:42;8.50;;;4.20;;
73107;SDS011;61559;50.476;15.588;2023-02-28T05:19:13;7.80;;;3.60;;
73107;SDS011;61559;50.476;15.588;2023-02-28T05:21:49;7.40;;;3.80;;
73107;SDS011;61559;50.476;15.588;2023-02-28T06:05:34;6.20;;;3.20;;
73107;SDS011;61559;50.476;15.588;2023-02-28T06:08:06;11.30;;;4.10;;
73107;SDS011;61559;50.476;15.588;2023-02-28T06:10:38;10.00;;;4.20;;
73107;SDS011;61559;50.476;15.588;2023-02-28T06:13:09;4.40;;;1.90;;
73107;SDS011;61559;50.476;15.588;2023-02-28T06:15:40;4.70;;;3.30;;
73107;SDS011;61559;50.476;15.588;2023-02-28T06:18:11;6.50;;;3.00;;
73107;SDS011;61559;50.476;15.588;2023-02-28T06:20:43;5.80;;;3.30;;
73107;SDS011;61559;50.476;15.588;2023-02-28T06:23:16;6.50;;;3.40;;
73107;SDS011;61559;50.476;15.588;2023-02-28T06:25:47;7.30;;;3.00;;
73107;SDS011;61559;50.476;15.588;2023-02-28T06:28:18;6.50;;;3.50;;
73107;SDS011;61559;50.476;15.588;2023-02-28T06:30:50;8.50;;;4.00;;
73107;SDS011;61559;50.476;15.588;2023-02-28T06:33:20;9.80;;;3.40;;
73107;SDS011;61559;50.476;15.588;2023-02-28T06:35:52;8.50;;;4.40;;
73107;SDS011;61559;50.476;15.588;2023-02-28T06:38:23;5.10;;;2.60;;
73107;SDS011;61559;50.476;15.588;2023-02-28T06:40:55;4.00;;;2.90;;
73107;SDS011;61559;50.476;15.588;2023-02-28T06:43:29;8.40;;;3.30;;
73107;SDS011;61559;50.476;15.588;2023-02-28T06:46:02;6.20;;;2.80;;
73107;SDS011;61559;50.476;15.588;2023-02-28T06:48:36;3.60;;;2.00;;
73107;SDS011;61559;50.476;15.588;2023-02-28T06:51:08;5.20;;;3.30;;
73107;SDS011;61559;50.476;15.588;2023-02-28T06:53:41;7.30;;;3.30;;
73107;SDS011;61559;50.476;15.588;2023-02-28T06:56:14;8.00;;;4.10;;
73107;SDS011;61559;50.476;15.588;2023-02-28T06:58:47;7.50;;;3.50;;
73107;SDS011;61559;50.476;15.588;2023-02-28T07:01:20;8.40;;;3.90;;
73107;SDS011;61559;50.476;15.588;2023-02-28T07:03:52;7.50;;;3.50;;
73107;SDS011;61559;50.476;15.588;2023-02-28T07:06:23;8.60;;;3.10;;
73107;SDS011;61559;50.476;15.588;2023-02-28T07:08:55;15.20;;;6.10;;
73107;SDS011;61559;50.476;15.588;2023-02-28T07:11:27;5.30;;;3.00;;
73107;SDS011;61559;50.476;15.588;2023-02-28T07:13:59;10.20;;;3.70;;
73107;SDS011;61559;50.476;15.588;2023-02-28T07:16:30;9.90;;;3.20;;
73107;SDS011;61559;50.476;15.588;2023-02-28T07:19:01;6.90;;;4.00;;
73107;SDS011;61559;50.476;15.588;2023-02-28T07:21:32;6.80;;;3.50;;
73107;SDS011;61559;50.476;15.588;2023-02-28T07:24:03;7.30;;;4.00;;
73107;SDS011;61559;50.476;15.588;2023-02-28T07:26:35;6.50;;;3.30;;
73107;SDS011;61559;50.476;15.588;2023-02-28T07:29:06;6.60;;;3.50;;
73107;SDS011;61559;50.476;15.588;2023-02-28T07:31:37;5.40;;;2.70;;
73107;SDS011;61559;50.476;15.588;2023-02-28T07:34:08;4.60;;;2.70;;
73107;SDS011;61559;50.476;15.588;2023-02-28T07:36:39;5.10;;;2.20;;
73107;SDS011;61559;50.476;15.588;2023-02-28T07:39:10;7.60;;;3.10;;
73107;SDS011;61559;50.476;15.588;2023-02-28T07:41:41;4.70;;;2.80;;
73107;SDS011;61559;50.476;15.588;2023-02-28T07:44:12;5.70;;;2.90;;
73107;SDS011;61559;50.476;15.588;2023-02-28T07:46:43;4.80;;;2.80;;
73107;SDS011;61559;50.476;15.588;2023-02-28T07:49:16;4.50;;;2.70;;
73107;SDS011;61559;50.476;15.588;2023-02-28T07:51:47;9.00;;;4.10;;
73107;SDS011;61559;50.476;15.588;2023-02-28T07:54:18;9.60;;;4.00;;
73107;SDS011;61559;50.476;15.588;2023-02-28T07:56:49;7.70;;;3.50;;
73107;SDS011;61559;50.476;15.588;2023-02-28T07:59:20;8.30;;;3.20;;
73107;SDS011;61559;50.476;15.588;2023-02-28T08:01:51;5.50;;;3.20;;
73107;SDS011;61559;50.476;15.588;2023-02-28T08:04:22;8.10;;;3.50;;
73107;SDS011;61559;50.476;15.588;2023-02-28T08:06:53;4.80;;;3.60;;
73107;SDS011;61559;50.476;15.588;2023-02-28T08:09:24;10.10;;;5.00;;
73107;SDS011;61559;50.476;15.588;2023-02-28T08:11:55;6.70;;;3.80;;
73107;SDS011;61559;50.476;15.588;2023-02-28T08:14:26;6.50;;;3.50;;
73107;SDS011;61559;50.476;15.588;2023-02-28T08:16:57;6.50;;;3.10;;
73107;SDS011;61559;50.476;15.588;2023-02-28T08:19:29;4.50;;;2.70;;
73107;SDS011;61559;50.476;15.588;2023-02-28T08:22:00;7.80;;;3.10;;
73107;SDS011;61559;50.476;15.588;2023-02-28T08:24:31;5.80;;;3.90;;
73107;SDS011;61559;50.476;15.588;2023-02-28T08:27:02;6.00;;;3.30;;
73107;SDS011;61559;50.476;15.588;2023-02-28T08:29:33;8.80;;;3.10;;
73107;SDS011;61559;50.476;15.588;2023-02-28T08:32:06;6.30;;;2.80;;
73107;SDS011;61559;50.476;15.588;2023-02-28T08:34:55;5.80;;;3.00;;
73107;SDS011;61559;50.476;15.588;2023-02-28T08:37:26;4.90;;;3.00;;
73107;SDS011;61559;50.476;15.588;2023-02-28T08:39:57;5.90;;;3.20;;
73107;SDS011;61559;50.476;15.588;2023-02-28T08:42:29;4.60;;;3.10;;
73107;SDS011;61559;50.476;15.588;2023-02-28T08:45:00;6.10;;;3.10;;
73107;SDS011;61559;50.476;15.588;2023-02-28T08:47:32;5.80;;;3.40;;
73107;SDS011;61559;50.476;15.588;2023-02-28T08:50:03;5.00;;;3.30;;
73107;SDS011;61559;50.476;15.588;2023-02-28T08:52:35;4.30;;;2.40;;
73107;SDS011;61559;50.476;15.588;2023-02-28T08:55:07;3.40;;;2.00;;
73107;SDS011;61559;50.476;15.588;2023-02-28T08:57:39;4.80;;;2.80;;
73107;SDS011;61559;50.476;15.588;2023-02-28T09:00:11;3.80;;;2.30;;
73107;SDS011;61559;50.476;15.588;2023-02-28T09:02:43;6.20;;;3.00;;
73107;SDS011;61559;50.476;15.588;2023-02-28T09:05:15;6.70;;;3.10;;
73107;SDS011;61559;50.476;15.588;2023-02-28T09:07:45;11.40;;;5.30;;
73107;SDS011;61559;50.476;15.588;2023-02-28T09:10:17;3.70;;;2.40;;
73107;SDS011;61559;50.476;15.588;2023-02-28T09:12:48;6.00;;;2.70;;
73107;SDS011;61559;50.476;15.588;2023-02-28T09:15:21;6.60;;;3.00;;
73107;SDS011;61559;50.476;15.588;2023-02-28T09:17:52;4.90;;;3.10;;
73107;SDS011;61559;50.476;15.588;2023-02-28T09:20:23;4.30;;;2.80;;
73107;SDS011;61559;50.476;15.588;2023-02-28T09:22:53;5.60;;;3.40;;
73107;SDS011;61559;50.476;15.588;2023-02-28T09:25:25;3.30;;;2.10;;
73107;SDS011;61559;50.476;15.588;2023-02-28T09:27:55;4.50;;;2.00;;
73107;SDS011;61559;50.476;15.588;2023-02-28T09:32:57;4.80;;;2.60;;
73107;SDS011;61559;50.476;15.588;2023-02-28T09:35:28;6.20;;;3.20;;
73107;SDS011;61559;50.476;15.588;2023-02-28T09:37:59;5.70;;;3.70;;
73107;SDS011;61559;50.476;15.588;2023-02-28T09:40:31;5.10;;;2.80;;
73107;SDS011;61559;50.476;15.588;2023-02-28T09:43:04;8.20;;;4.10;;
73107;SDS011;61559;50.476;15.588;2023-02-28T09:45:40;3.30;;;2.40;;
73107;SDS011;61559;50.476;15.588;2023-02-28T09:48:18;4.90;;;2.60;;
73107;SDS011;61559;50.476;15.588;2023-02-28T09:50:55;8.20;;;3.90;;
73107;SDS011;61559;50.476;15.588;2023-02-28T09:53:33;5.00;;;2.90;;
73107;SDS011;61559;50.476;15.588;2023-02-28T09:56:09;7.10;;;3.90;;
73107;SDS011;61559;50.476;15.588;2023-02-28T09:58:47;7.60;;;4.10;;
73107;SDS011;61559;50.476;15.588;2023-02-28T10:01:23;5.80;;;3.00;;
73107;SDS011;61559;50.476;15.588;2023-02-28T10:04:00;3.00;;;2.20;;
73107;SDS011;61559;50.476;15.588;2023-02-28T10:06:38;3.40;;;2.30;;
73107;SDS011;61559;50.476;15.588;2023-02-28T10:09:15;4.50;;;2.50;;
73107;SDS011;61559;50.476;15.588;2023-02-28T10:11:52;7.20;;;3.50;;
73107;SDS011;61559;50.476;15.588;2023-02-28T10:14:27;8.10;;;4.10;;
73107;SDS011;61559;50.476;15.588;2023-02-28T10:17:02;5.70;;;3.20;;
73107;SDS011;61559;50.476;15.588;2023-02-28T10:19:42;6.70;;;3.90;;
73107;SDS011;61559;50.476;15.588;2023-02-28T10:22:22;7.30;;;4.00;;
73107;SDS011;61559;50.476;15.588;2023-02-28T10:24:58;5.80;;;3.10;;
73107;SDS011;61559;50.476;15.588;2023-02-28T10:27:33;7.30;;;2.70;;
73107;SDS011;61559;50.476;15.588;2023-02-28T10:30:09;5.50;;;3.00;;
73107;SDS011;61559;50.476;15.588;2023-02-28T10:32:46;5.90;;;3.00;;
73107;SDS011;61559;50.476;15.588;2023-02-28T10:35:22;5.80;;;3.50;;
73107;SDS011;61559;50.476;15.588;2023-02-28T10:37:55;4.60;;;2.40;;
73107;SDS011;61559;50.476;15.588;2023-02-28T10:40:32;4.80;;;3.20;;
73107;SDS011;61559;50.476;15.588;2023-02-28T10:43:05;6.90;;;3.00;;
73107;SDS011;61559;50.476;15.588;2023-02-28T10:45:55;5.90;;;3.70;;
73107;SDS011;61559;50.476;15.588;2023-02-28T10:48:29;4.70;;;2.20;;
73107;SDS011;61559;50.476;15.588;2023-02-28T10:51:06;3.90;;;2.30;;
73107;SDS011;61559;50.476;15.588;2023-02-28T10:53:45;7.10;;;3.10;;
73107;SDS011;61559;50.476;15.588;2023-02-28T10:56:28;5.40;;;3.40;;
73107;SDS011;61559;50.476;15.588;2023-02-28T10:59:01;5.10;;;3.20;;
73107;SDS011;61559;50.476;15.588;2023-02-28T11:01:52;7.10;;;3.60;;
73107;SDS011;61559;50.476;15.588;2023-02-28T11:04:33;7.00;;;3.90;;
73107;SDS011;61559;50.476;15.588;2023-02-28T11:07:16;6.20;;;3.30;;
73107;SDS011;61559;50.476;15.588;2023-02-28T11:09:53;5.90;;;4.00;;
73107;SDS011;61559;50.476;15.588;2023-02-28T11:12:26;5.40;;;3.90;;
73107;SDS011;61559;50.476;15.588;2023-02-28T11:15:21;6.50;;;3.70;;
73107;SDS011;61559;50.476;15.588;2023-02-28T11:17:55;7.60;;;3.80;;
73107;SDS011;61559;50.476;15.588;2023-02-28T11:20:28;5.60;;;3.10;;
73107;SDS011;61559;50.476;15.588;2023-02-28T11:23:02;5.40;;;3.20;;
73107;SDS011;61559;50.476;15.588;2023-02-28T11:25:39;6.90;;;3.70;;
73107;SDS011;61559;50.476;15.588;2023-02-28T11:28:26;5.10;;;3.90;;
73107;SDS011;61559;50.476;15.588;2023-02-28T11:31:03;5.50;;;3.10;;
73107;SDS011;61559;50.476;15.588;2023-02-28T11:33:44;7.60;;;3.40;;
73107;SDS011;61559;50.476;15.588;2023-02-28T11:36:19;8.30;;;3.70;;
73107;SDS011;61559;50.476;15.588;2023-02-28T11:38:53;4.80;;;2.90;;
73107;SDS011;61559;50.476;15.588;2023-02-28T11:41:31;6.20;;;3.10;;
73107;SDS011;61559;50.476;15.588;2023-02-28T11:44:15;7.80;;;3.90;;
73107;SDS011;61559;50.476;15.588;2023-02-28T11:46:52;8.80;;;5.10;;
73107;SDS011;61559;50.476;15.588;2023-02-28T11:49:30;9.10;;;4.00;;
73107;SDS011;61559;50.476;15.588;2023-02-28T11:52:10;6.90;;;4.00;;
73107;SDS011;61559;50.476;15.588;2023-02-28T11:55:04;6.80;;;4.30;;
73107;SDS011;61559;50.476;15.588;2023-02-28T12:03:42;6.20;;;3.10;;
73107;SDS011;61559;50.476;15.588;2023-02-28T12:06:23;6.70;;;3.20;;
73107;SDS011;61559;50.476;15.588;2023-02-28T12:09:02;6.60;;;3.20;;
73107;SDS011;61559;50.476;15.588;2023-02-28T12:11:47;6.20;;;3.20;;
73107;SDS011;61559;50.476;15.588;2023-02-28T12:14:44;9.40;;;4.10;;
73107;SDS011;61559;50.476;15.588;2023-02-28T12:17:29;5.00;;;3.00;;
73107;SDS011;61559;50.476;15.588;2023-02-28T12:20:13;5.50;;;3.10;;
73107;SDS011;61559;50.476;15.588;2023-02-28T12:22:55;7.80;;;4.00;;
73107;SDS011;61559;50.476;15.588;2023-02-28T12:25:45;6.50;;;3.10;;
73107;SDS011;61559;50.476;15.588;2023-02-28T12:28:25;8.20;;;3.10;;
73107;SDS011;61559;50.476;15.588;2023-02-28T12:31:03;7.40;;;4.30;;
73107;SDS011;61559;50.476;15.588;2023-02-28T12:33:40;7.80;;;4.10;;
73107;SDS011;61559;50.476;15.588;2023-02-28T12:36:16;10.10;;;4.30;;
73107;SDS011;61559;50.476;15.588;2023-02-28T12:38:50;9.00;;;5.00;;
73107;SDS011;61559;50.476;15.588;2023-02-28T12:41:29;9.50;;;4.60;;
73107;SDS011;61559;50.476;15.588;2023-02-28T12:44:07;10.00;;;3.80;;
73107;SDS011;61559;50.476;15.588;2023-02-28T12:46:42;6.30;;;3.90;;
73107;SDS011;61559;50.476;15.588;2023-02-28T12:49:17;9.40;;;4.60;;
73107;SDS011;61559;50.476;15.588;2023-02-28T12:51:53;8.00;;;4.30;;
73107;SDS011;61559;50.476;15.588;2023-02-28T12:54:25;9.40;;;5.30;;
73107;SDS011;61559;50.476;15.588;2023-02-28T12:57:05;6.00;;;3.40;;
73107;SDS011;61559;50.476;15.588;2023-02-28T12:59:41;4.90;;;2.90;;
73107;SDS011;61559;50.476;15.588;2023-02-28T13:02:25;6.00;;;3.40;;
73107;SDS011;61559;50.476;15.588;2023-02-28T13:05:24;8.10;;;4.30;;
73107;SDS011;61559;50.476;15.588;2023-02-28T13:08:36;7.70;;;4.20;;
73107;SDS011;61559;50.476;15.588;2023-02-28T13:11:27;5.40;;;3.40;;
73107;SDS011;61559;50.476;15.588;2023-02-28T13:14:02;7.30;;;3.90;;
73107;SDS011;61559;50.476;15.588;2023-02-28T13:16:50;7.80;;;4.20;;
73107;SDS011;61559;50.476;15.588;2023-02-28T13:19:25;10.90;;;4.10;;
73107;SDS011;61559;50.476;15.588;2023-02-28T13:21:58;8.00;;;4.80;;
73107;SDS011;61559;50.476;15.588;2023-02-28T13:24:41;4.30;;;2.60;;
73107;SDS011;61559;50.476;15.588;2023-02-28T13:27:22;7.20;;;4.20;;
73107;SDS011;61559;50.476;15.588;2023-02-28T13:36:08;7.10;;;3.60;;
73107;SDS011;61559;50.476;15.588;2023-02-28T13:38:52;9.40;;;4.50;;
73107;SDS011;61559;50.476;15.588;2023-02-28T13:41:47;5.50;;;3.60;;
73107;SDS011;61559;50.476;15.588;2023-02-28T13:44:19;9.80;;;4.30;;
73107;SDS011;61559;50.476;15.588;2023-02-28T13:49:52;7.10;;;4.20;;
73107;SDS011;61559;50.476;15.588;2023-02-28T13:52:47;5.60;;;3.50;;
73107;SDS011;61559;50.476;15.588;2023-02-28T13:55:28;8.60;;;4.70;;
73107;SDS011;61559;50.476;15.588;2023-02-28T13:58:15;12.00;;;6.90;;
73107;SDS011;61559;50.476;15.588;2023-02-28T14:01:05;8.30;;;3.60;;
73107;SDS011;61559;50.476;15.588;2023-02-28T14:03:49;6.40;;;3.20;;
73107;SDS011;61559;50.476;15.588;2023-02-28T14:06:31;7.60;;;4.30;;
73107;SDS011;61559;50.476;15.588;2023-02-28T14:09:06;8.20;;;4.80;;
73107;SDS011;61559;50.476;15.588;2023-02-28T14:11:51;7.60;;;3.90;;
73107;SDS011;61559;50.476;15.588;2023-02-28T14:17:31;9.20;;;4.70;;
73107;SDS011;61559;50.476;15.588;2023-02-28T14:20:03;11.00;;;6.30;;
73107;SDS011;61559;50.476;15.588;2023-02-28T14:22:48;10.30;;;4.50;;
73107;SDS011;61559;50.476;15.588;2023-02-28T14:25:30;9.40;;;5.20;;
73107;SDS011;61559;50.476;15.588;2023-02-28T14:28:08;7.70;;;3.90;;
73107;SDS011;61559;50.476;15.588;2023-02-28T14:33:46;9.30;;;4.30;;
73107;SDS011;61559;50.476;15.588;2023-02-28T14:36:30;8.80;;;4.70;;
73107;SDS011;61559;50.476;15.588;2023-02-28T14:39:06;7.80;;;4.50;;
73107;SDS011;61559;50.476;15.588;2023-02-28T14:41:42;7.50;;;3.50;;
73107;SDS011;61559;50.476;15.588;2023-02-28T14:44:15;12.40;;;6.00;;
73107;SDS011;61559;50.476;15.588;2023-02-28T14:46:49;7.20;;;4.10;;
73107;SDS011;61559;50.476;15.588;2023-02-28T14:49:23;7.40;;;3.60;;
73107;SDS011;61559;50.476;15.588;2023-02-28T14:52:05;10.40;;;4.50;;
73107;SDS011;61559;50.476;15.588;2023-02-28T14:54:42;7.10;;;4.30;;
73107;SDS011;61559;50.476;15.588;2023-02-28T14:57:22;6.70;;;3.70;;
73107;SDS011;61559;50.476;15.588;2023-02-28T14:59:58;7.40;;;4.60;;
73107;SDS011;61559;50.476;15.588;2023-02-28T15:02:39;11.40;;;5.70;;
73107;SDS011;61559;50.476;15.588;2023-02-28T15:05:19;7.40;;;3.70;;
73107;SDS011;61559;50.476;15.588;2023-02-28T15:08:02;7.70;;;4.30;;
73107;SDS011;61559;50.476;15.588;2023-02-28T15:10:36;10.10;;;4.50;;
73107;SDS011;61559;50.476;15.588;2023-02-28T15:13:10;8.50;;;4.20;;
73107;SDS011;61559;50.476;15.588;2023-02-28T15:15:44;9.30;;;4.20;;
73107;SDS011;61559;50.476;15.588;2023-02-28T15:18:33;8.70;;;4.50;;
73107;SDS011;61559;50.476;15.588;2023-02-28T15:21:13;8.20;;;4.60;;
73107;SDS011;61559;50.476;15.588;2023-02-28T15:23:47;8.40;;;4.10;;
73107;SDS011;61559;50.476;15.588;2023-02-28T15:26:22;7.80;;;3.50;;
73107;SDS011;61559;50.476;15.588;2023-02-28T15:28:59;7.10;;;4.50;;
73107;SDS011;61559;50.476;15.588;2023-02-28T15:31:34;8.80;;;4.50;;
73107;SDS011;61559;50.476;15.588;2023-02-28T15:34:30;7.60;;;4.40;;
73107;SDS011;61559;50.476;15.588;2023-02-28T15:37:33;6.30;;;4.40;;
73107;SDS011;61559;50.476;15.588;2023-02-28T15:40:15;8.20;;;5.10;;
73107;SDS011;61559;50.476;15.588;2023-02-28T15:42:59;7.90;;;5.10;;
73107;SDS011;61559;50.476;15.588;2023-02-28T15:45:35;7.50;;;5.00;;
73107;SDS011;61559;50.476;15.588;2023-02-28T15:48:17;10.70;;;6.00;;
73107;SDS011;61559;50.476;15.588;2023-02-28T15:50:51;10.20;;;5.70;;
73107;SDS011;61559;50.476;15.588;2023-02-28T15:53:25;9.80;;;5.80;;
73107;SDS011;61559;50.476;15.588;2023-02-28T15:56:00;10.70;;;4.90;;
73107;SDS011;61559;50.476;15.588;2023-02-28T15:58:35;11.10;;;5.70;;
73107;SDS011;61559;50.476;15.588;2023-02-28T16:01:15;9.30;;;5.10;;
73107;SDS011;61559;50.476;15.588;2023-02-28T16:03:49;13.60;;;6.00;;
73107;SDS011;61559;50.476;15.588;2023-02-28T16:06:33;12.40;;;6.60;;
73107;SDS011;61559;50.476;15.588;2023-02-28T16:09:09;8.90;;;5.40;;
73107;SDS011;61559;50.476;15.588;2023-02-28T16:11:45;13.50;;;7.00;;
73107;SDS011;61559;50.476;15.588;2023-02-28T16:14:19;50.50;;;17.20;;
73107;SDS011;61559;50.476;15.588;2023-02-28T16:16:52;14.40;;;8.00;;
73107;SDS011;61559;50.476;15.588;2023-02-28T16:19:25;14.90;;;8.40;;
73107;SDS011;61559;50.476;15.588;2023-02-28T16:24:26;9.20;;;4.50;;
73107;SDS011;61559;50.476;15.588;2023-02-28T16:29:32;14.00;;;6.70;;
73107;SDS011;61559;50.476;15.588;2023-02-28T16:32:05;10.90;;;5.70;;
73107;SDS011;61559;50.476;15.588;2023-02-28T16:34:42;14.00;;;6.50;;
73107;SDS011;61559;50.476;15.588;2023-02-28T16:37:18;18.30;;;9.50;;
73107;SDS011;61559;50.476;15.588;2023-02-28T16:42:20;12.10;;;6.00;;
73107;SDS011;61559;50.476;15.588;2023-02-28T16:44:55;12.70;;;6.00;;